createdAt,value
2018-06-20T00:01:30.334Z,102073.58
2018-06-20T00:03:59.673Z,102073.22
2018-06-20T00:06:31.794Z,102065.35
2018-06-20T00:09:02.692Z,102057.43
2018-06-20T00:11:32.538Z,102057.98
2018-06-20T00:14:03.065Z,102057.34
2018-06-20T00:16:33.052Z,102054.58
2018-06-20T00:19:02.775Z,102058.38
2018-06-20T00:21:33.119Z,102053.16
2018-06-20T00:24:03.164Z,102061.30
2018-06-20T00:26:32.960Z,102055.22
2018-06-20T00:29:02.235Z,102045.53
2018-06-20T00:31:32.028Z,102048.50
2018-06-20T00:34:01.766Z,102050.62
2018-06-20T00:36:32.022Z,102043.16
2018-06-20T00:39:02.995Z,102040.14
2018-06-20T00:41:32.429Z,102042.01
2018-06-20T00:44:01.939Z,102047.94
2018-06-20T00:46:31.939Z,102048.84
2018-06-20T00:49:01.777Z,102045.69
2018-06-20T00:51:31.307Z,102041.59
2018-06-20T00:54:00.471Z,102040.02
2018-06-20T00:56:30.579Z,102036.33
2018-06-20T00:59:00.085Z,102040.48
2018-06-20T01:01:29.599Z,102031.77
2018-06-20T01:03:59.288Z,102026.64
2018-06-20T01:06:28.901Z,102029.27
2018-06-20T01:08:59.665Z,102025.98
2018-06-20T01:11:30.234Z,102018.55
2018-06-20T01:13:59.830Z,102016.85
2018-06-20T01:16:29.386Z,102010.98
2018-06-20T01:18:59.685Z,102014.67
2018-06-20T01:21:29.166Z,102011.12
2018-06-20T01:23:59.325Z,102013.48
2018-06-20T01:26:30.704Z,102011.00
2018-06-20T01:29:01.143Z,102015.66
2018-06-20T01:31:30.616Z,102008.18
2018-06-20T01:34:00.860Z,102006.33
2018-06-20T01:36:31.030Z,102003.66
2018-06-20T01:39:00.357Z,101999.72
2018-06-20T01:41:29.847Z,101992.22
2018-06-20T01:43:59.363Z,101995.26
2018-06-20T01:46:29.648Z,101998.36
2018-06-20T01:49:00.535Z,102002.36
2018-06-20T01:51:30.133Z,102001.71
2018-06-20T01:54:00.427Z,102006.89
2018-06-20T01:56:30.918Z,102007.47
2018-06-20T01:59:01.144Z,102006.70
2018-06-20T02:01:32.186Z,102001.41
2018-06-20T02:04:01.715Z,102005.16
2018-06-20T02:06:31.177Z,102007.89
2018-06-20T02:09:01.225Z,102010.44
2018-06-20T02:11:31.953Z,102001.23
2018-06-20T02:14:02.888Z,102004.98
2018-06-20T02:16:34.126Z,102001.95
2018-06-20T02:19:03.750Z,102004.86
2018-06-20T02:24:08.409Z,102001.05
2018-06-20T02:26:38.645Z,101999.67
2018-06-20T02:29:09.791Z,101996.70
2018-06-20T02:31:39.398Z,101991.24
2018-06-20T02:34:08.659Z,101991.19
2018-06-20T02:36:40.821Z,101995.14
2018-06-20T02:39:10.615Z,101994.30
2018-06-20T02:41:39.915Z,101989.73
2018-06-20T02:44:09.764Z,101990.52
2018-06-20T02:46:40.223Z,101991.38
2018-06-20T02:49:09.804Z,101993.75
2018-06-20T02:51:40.363Z,101997.23
2018-06-20T02:54:09.871Z,101994.02
2018-06-20T02:56:39.378Z,101991.14
2018-06-20T02:59:08.876Z,101990.73
2018-06-20T03:01:39.258Z,101986.52
2018-06-20T03:04:12.524Z,101987.88
2018-06-20T03:06:42.826Z,101989.22
2018-06-20T03:09:17.419Z,101991.91
2018-06-20T03:11:47.043Z,101991.84
2018-06-20T03:14:17.042Z,101988.11
2018-06-20T03:16:46.870Z,101979.80
2018-06-20T03:19:16.876Z,101979.88
2018-06-20T03:21:46.258Z,101979.47
2018-06-20T03:24:16.563Z,101976.86
2018-06-20T03:26:46.607Z,101975.92
2018-06-20T03:29:16.461Z,101981.10
2018-06-20T03:31:46.545Z,101976.44
2018-06-20T03:34:16.091Z,101978.34
2018-06-20T03:36:46.216Z,101970.61
2018-06-20T03:39:15.770Z,101973.98
2018-06-20T03:41:45.438Z,101967.55
2018-06-20T03:44:15.132Z,101975.74
2018-06-20T03:46:45.358Z,101972.69
2018-06-20T03:49:16.461Z,101971.39
2018-06-20T03:51:46.739Z,101971.63
2018-06-20T03:54:16.277Z,101974.78
2018-06-20T03:56:45.923Z,101970.77
2018-06-20T03:59:15.869Z,101970.62
2018-06-20T04:01:45.325Z,101966.59
2018-06-20T04:04:14.969Z,101965.13
2018-06-20T04:06:46.489Z,101963.25
2018-06-20T04:09:16.931Z,101958.39
2018-06-20T04:11:46.574Z,101964.47
2018-06-20T04:14:16.079Z,101967.08
2018-06-20T04:16:45.660Z,101956.41
2018-06-20T04:19:16.664Z,101962.03
2018-06-20T04:21:45.971Z,101964.71
2018-06-20T04:24:15.249Z,101964.05
2018-06-20T04:26:44.708Z,101964.64
2018-06-20T04:29:14.129Z,101965.66
2018-06-20T04:31:43.763Z,101961.23
2018-06-20T04:34:13.197Z,101950.06
2018-06-20T04:36:43.294Z,101947.70
2018-06-20T04:39:12.801Z,101950.41
2018-06-20T04:41:41.962Z,101945.53
2018-06-20T04:44:12.846Z,101946.44
2018-06-20T04:46:42.433Z,101944.94
2018-06-20T04:49:12.030Z,101950.50
2018-06-20T04:51:41.640Z,101943.90
2018-06-20T04:54:11.810Z,101949.03
2018-06-20T04:56:41.286Z,101952.42
2018-06-20T04:59:10.880Z,101944.14
2018-06-20T05:01:40.284Z,101951.34
2018-06-20T05:04:10.356Z,101944.69
2018-06-20T05:06:39.787Z,101949.37
2018-06-20T05:09:14.481Z,101942.74
2018-06-20T05:11:43.642Z,101946.61
2018-06-20T05:14:13.208Z,101943.36
2018-06-20T05:16:43.501Z,101938.35
2018-06-20T05:26:01.917Z,101930.10
2018-06-20T05:28:31.353Z,101935.17
2018-06-20T05:31:00.856Z,101941.06
2018-06-20T05:33:30.280Z,101936.48
2018-06-20T05:36:00.283Z,101941.95
2018-06-20T05:38:29.873Z,101941.13
2018-06-20T05:41:00.029Z,101939.52
2018-06-20T05:43:29.838Z,101942.87
2018-06-20T05:45:59.376Z,101940.77
2018-06-20T05:48:29.585Z,101941.16
2018-06-20T05:50:59.088Z,101937.79
2018-06-20T05:53:28.776Z,101939.48
2018-06-20T05:55:58.306Z,101938.59
2018-06-20T05:58:27.761Z,101931.00
2018-06-20T06:00:57.317Z,101929.73
2018-06-20T06:03:26.785Z,101930.95
2018-06-20T06:06:12.908Z,101930.09
2018-06-20T06:08:43.691Z,101919.91
2018-06-20T06:11:13.384Z,101919.02
2018-06-20T06:13:42.853Z,101918.12
2018-06-20T06:16:12.306Z,101918.49
2018-06-20T06:18:41.617Z,101917.53
2018-06-20T06:21:10.987Z,101908.98
2018-06-20T06:23:40.412Z,101903.84
2018-06-20T06:26:09.606Z,101909.58
2018-06-20T06:28:38.890Z,101909.89
2018-06-20T06:31:08.389Z,101909.84
2018-06-20T06:33:37.873Z,101902.45
2018-06-20T06:36:07.694Z,101907.52
2018-06-20T06:38:37.212Z,101900.73
2018-06-20T06:41:06.851Z,101899.89
2018-06-20T06:43:36.333Z,101897.69
2018-06-20T06:46:05.781Z,101895.97
2018-06-20T06:48:35.241Z,101901.80
2018-06-20T06:51:04.724Z,101907.56
2018-06-20T06:53:34.337Z,101898.70
2018-06-20T06:56:03.837Z,101891.00
2018-06-20T06:58:33.060Z,101887.16
2018-06-20T07:01:02.929Z,101889.73
2018-06-20T07:03:32.601Z,101890.08
2018-06-20T07:06:02.100Z,101891.31
2018-06-20T07:08:31.620Z,101894.72
2018-06-20T07:11:01.157Z,101888.85
2018-06-20T07:13:30.781Z,101887.47
2018-06-20T07:16:00.361Z,101884.69
2018-06-20T07:18:30.381Z,101880.39
2018-06-20T07:20:59.644Z,101885.07
2018-06-20T07:23:29.151Z,101886.59
2018-06-20T07:25:58.760Z,101884.86
2018-06-20T07:28:29.299Z,101887.13
2018-06-20T07:30:58.760Z,101885.23
2018-06-20T07:33:28.292Z,101886.78
2018-06-20T07:35:57.758Z,101882.45
2018-06-20T07:38:27.496Z,101871.94
2018-06-20T07:40:57.960Z,101871.42
2018-06-20T07:43:27.573Z,101862.00
2018-06-20T07:45:58.241Z,101860.63
2018-06-20T07:48:27.769Z,101857.91
2018-06-20T07:50:57.290Z,101855.23
2018-06-20T07:53:26.805Z,101856.07
2018-06-20T07:55:56.294Z,101852.84
2018-06-20T07:58:30.803Z,101850.56
2018-06-20T08:01:05.450Z,101849.70
2018-06-20T08:03:39.874Z,101851.64
2018-06-20T08:06:14.646Z,101855.50
2018-06-20T08:08:49.357Z,101852.77
2018-06-20T08:12:24.244Z,101862.12
2018-06-20T08:14:59.503Z,101848.36
2018-06-20T08:17:34.121Z,101839.89
2018-06-20T08:20:07.929Z,101839.97
2018-06-20T08:22:37.453Z,101842.09
2018-06-20T08:25:07.659Z,101849.49
2018-06-20T08:27:37.408Z,101844.64
2018-06-20T08:30:08.281Z,101839.75
2018-06-20T08:32:37.552Z,101844.20
2018-06-20T08:35:07.044Z,101841.05
2018-06-20T08:37:37.561Z,101835.89
2018-06-20T08:40:07.201Z,101832.90
2018-06-20T08:42:36.821Z,101831.02
2018-06-20T08:45:06.074Z,101824.91
2018-06-20T08:47:35.670Z,101823.91
2018-06-20T08:50:05.484Z,101815.97
2018-06-20T08:52:34.989Z,101824.14
2018-06-20T08:55:04.542Z,101818.96
2018-06-20T08:57:34.038Z,101821.81
2018-06-20T09:00:03.520Z,101815.03
2018-06-20T09:02:33.128Z,101821.00
2018-06-20T09:05:07.862Z,101827.04
2018-06-20T09:07:42.652Z,101832.02
2018-06-20T09:10:17.817Z,101816.33
2018-06-20T09:12:52.880Z,101814.05
2018-06-20T09:15:27.643Z,101815.29
2018-06-20T09:18:02.471Z,101812.25
2018-06-20T09:20:32.141Z,101805.20
2018-06-20T09:23:02.495Z,101807.59
2018-06-20T09:25:32.085Z,101798.81
2018-06-20T09:28:01.617Z,101797.92
2018-06-20T09:30:31.044Z,101805.75
2018-06-20T09:33:00.198Z,101801.84
2018-06-20T09:35:29.729Z,101790.55
2018-06-20T09:37:59.388Z,101793.42
2018-06-20T09:40:28.945Z,101802.19
2018-06-20T09:42:58.421Z,101787.32
2018-06-20T09:45:27.875Z,101788.98
2018-06-20T09:47:57.093Z,101780.70
2018-06-20T09:50:31.836Z,101774.05
2018-06-20T09:53:01.373Z,101779.31
2018-06-20T09:55:31.405Z,101768.63
2018-06-20T09:58:01.021Z,101769.87
2018-06-20T10:00:35.795Z,101764.61
2018-06-20T10:03:10.707Z,101756.30
2018-06-20T10:05:45.159Z,101754.99
2018-06-20T10:08:20.053Z,101743.20
2018-06-20T10:10:54.629Z,101746.55
2018-06-20T10:13:25.591Z,101744.69
2018-06-20T10:15:55.077Z,101748.01
2018-06-20T10:18:24.986Z,101749.46
2018-06-20T10:20:54.517Z,101751.63
2018-06-20T10:23:24.211Z,101745.89
2018-06-20T10:25:53.743Z,101735.46
2018-06-20T10:28:23.227Z,101736.73
2018-06-20T10:30:52.850Z,101728.39
2018-06-20T10:33:22.300Z,101721.23
2018-06-20T10:35:51.937Z,101719.25
2018-06-20T10:38:21.342Z,101705.34
2018-06-20T10:40:50.890Z,101710.84
2018-06-20T10:43:20.420Z,101717.12
2018-06-20T10:45:54.884Z,101705.95
2018-06-20T10:48:24.859Z,101700.79
2018-06-20T10:50:54.008Z,101693.35
2018-06-20T10:53:23.474Z,101702.50
2018-06-20T10:55:53.024Z,101697.44
2018-06-20T10:59:27.854Z,101691.36
2018-06-20T11:02:02.568Z,101700.70
2018-06-20T11:04:37.578Z,101693.58
2018-06-20T11:08:14.310Z,101694.67
2018-06-20T11:10:48.924Z,101696.59
2018-06-20T11:13:18.453Z,101698.09
2018-06-20T11:15:48.187Z,101691.48
2018-06-20T11:18:17.812Z,101682.77
2018-06-20T11:20:52.533Z,101680.85
2018-06-20T11:23:21.854Z,101677.35
2018-06-20T11:25:51.302Z,101672.67
2018-06-20T11:34:16.719Z,101669.55
2018-06-20T11:36:46.201Z,101662.50
2018-06-20T11:39:15.781Z,101650.27
2018-06-20T11:41:45.234Z,101650.15
2018-06-20T11:44:14.670Z,101657.73
2018-06-20T11:46:49.288Z,101640.45
2018-06-20T11:49:18.821Z,101636.58
2018-06-20T11:51:48.276Z,101624.81
2018-06-20T11:54:18.027Z,101632.96
2018-06-20T11:56:47.456Z,101627.14
2018-06-20T11:59:22.583Z,101624.19
2018-06-20T12:01:57.701Z,101613.25
2018-06-20T12:04:32.321Z,101620.80
2018-06-20T12:07:06.815Z,101609.48
2018-06-20T12:09:41.696Z,101608.27
2018-06-20T12:12:16.428Z,101606.05
2018-06-20T12:14:52.320Z,101607.21
2018-06-20T12:17:26.784Z,101601.19
2018-06-20T12:20:01.584Z,101602.31
2018-06-20T12:22:36.335Z,101594.36
2018-06-20T12:25:10.946Z,101583.08
2018-06-20T12:27:45.928Z,101581.98
2018-06-20T12:30:21.481Z,101588.70
2018-06-20T12:32:56.179Z,101582.82
2018-06-20T12:35:30.796Z,101579.91
2018-06-20T12:38:06.002Z,101580.75
2018-06-20T12:40:41.105Z,101565.96
2018-06-20T12:43:16.362Z,101565.26
2018-06-20T12:45:46.241Z,101558.16
2018-06-20T12:48:15.737Z,101558.13
2018-06-20T12:50:45.164Z,101560.65
2018-06-20T12:53:14.610Z,101557.25
2018-06-20T12:55:44.046Z,101559.31
2018-06-20T12:58:13.486Z,101561.59
2018-06-20T13:00:42.909Z,101558.72
2018-06-20T13:03:12.421Z,101546.27
2018-06-20T13:05:42.787Z,101556.09
2018-06-20T13:08:13.157Z,101555.10
2018-06-20T13:10:43.249Z,101552.14
2018-06-20T13:13:14.042Z,101537.02
2018-06-20T13:15:45.948Z,101543.13
2018-06-20T13:18:15.945Z,101541.71
2018-06-20T13:20:45.829Z,101524.47
2018-06-20T13:23:15.690Z,101517.97
2018-06-20T13:25:45.227Z,101515.23
2018-06-20T13:28:14.684Z,101514.98
2018-06-20T13:30:50.046Z,101510.23
2018-06-20T13:33:24.668Z,101517.16
2018-06-20T13:35:59.361Z,101516.52
2018-06-20T13:38:33.929Z,101514.30
2018-06-20T13:41:08.634Z,101507.77
2018-06-20T13:43:43.077Z,101506.98
2018-06-20T13:46:18.429Z,101507.87
2018-06-20T13:48:47.941Z,101504.31
2018-06-20T13:51:17.474Z,101500.53
2018-06-20T13:53:47.060Z,101493.61
2018-06-20T13:56:16.562Z,101492.10
2018-06-20T13:58:45.964Z,101487.22
2018-06-20T14:01:16.475Z,101486.26
2018-06-20T14:03:46.121Z,101470.61
2018-06-20T14:06:15.738Z,101469.58
2018-06-20T14:08:45.826Z,101467.48
2018-06-20T14:11:15.984Z,101466.20
2018-06-20T14:13:45.518Z,101466.05
2018-06-20T14:16:14.866Z,101455.68
2018-06-20T14:18:44.352Z,101465.34
2018-06-20T14:21:19.109Z,101459.44
2018-06-20T14:23:48.856Z,101456.20
2018-06-20T14:26:18.140Z,101467.89
2018-06-20T14:28:48.211Z,101464.13
2018-06-20T14:31:23.050Z,101454.59
2018-06-20T14:33:57.710Z,101447.31
2018-06-20T14:36:32.377Z,101469.06
2018-06-20T14:40:07.868Z,101446.25
2018-06-20T14:42:42.891Z,101456.60
2018-06-20T14:45:18.033Z,101442.91
2018-06-20T14:47:49.233Z,101462.41
2018-06-20T14:50:18.853Z,101449.47
2018-06-20T14:52:48.142Z,101441.54
2018-06-20T14:55:19.525Z,101441.51
2018-06-20T14:57:50.491Z,101438.58
2018-06-20T15:00:20.439Z,101441.89
2018-06-20T15:02:50.440Z,101431.45
2018-06-20T15:05:20.872Z,101438.61
2018-06-20T15:07:50.988Z,101435.45
2018-06-20T15:10:20.391Z,101427.11
2018-06-20T15:12:49.977Z,101425.19
2018-06-20T15:15:19.514Z,101424.17
2018-06-20T15:17:49.399Z,101416.76
2018-06-20T15:20:19.027Z,101397.94
2018-06-20T15:22:48.965Z,101405.95
2018-06-20T15:25:22.508Z,101404.20
2018-06-20T15:27:57.197Z,101413.33
2018-06-20T15:30:32.366Z,101408.65
2018-06-20T15:33:07.613Z,101406.27
2018-06-20T15:35:42.402Z,101408.74
2018-06-20T15:38:16.745Z,101401.43
2018-06-20T15:40:46.498Z,101395.30
2018-06-20T15:43:16.249Z,101400.52
2018-06-20T15:45:45.730Z,101396.34
2018-06-20T15:48:15.209Z,101391.95
2018-06-20T15:50:44.884Z,101389.98
2018-06-20T15:53:14.582Z,101384.48
2018-06-20T15:55:44.270Z,101381.38
2018-06-20T15:58:13.768Z,101374.45
2018-06-20T16:00:44.234Z,101360.70
2018-06-20T16:03:13.794Z,101366.96
2018-06-20T16:05:43.295Z,101360.76
2018-06-20T16:08:12.821Z,101364.73
2018-06-20T16:10:42.668Z,101368.98
2018-06-20T16:13:12.240Z,101365.89
2018-06-20T16:15:41.792Z,101361.77
2018-06-20T16:18:11.484Z,101352.41
2018-06-20T16:20:47.218Z,101347.74
2018-06-20T16:23:21.927Z,101343.46
2018-06-20T16:25:57.465Z,101334.66
2018-06-20T16:28:33.279Z,101340.66
2018-06-20T16:31:03.415Z,101351.13
2018-06-20T16:33:33.317Z,101345.25
2018-06-20T16:36:02.778Z,101337.00
2018-06-20T16:38:32.317Z,101346.55
2018-06-20T16:41:02.208Z,101327.78
2018-06-20T16:43:31.755Z,101320.34
2018-06-20T16:46:01.210Z,101337.45
2018-06-20T16:48:30.729Z,101334.46
2018-06-20T16:51:00.132Z,101333.48
2018-06-20T16:53:29.606Z,101338.25
2018-06-20T16:55:59.141Z,101332.73
2018-06-20T16:58:28.710Z,101329.39
2018-06-20T17:01:03.302Z,101330.23
2018-06-20T17:03:32.825Z,101321.97
2018-06-20T17:06:02.331Z,101319.28
2018-06-20T17:08:31.921Z,101309.19
2018-06-20T17:11:01.381Z,101304.73
2018-06-20T17:13:36.034Z,101310.20
2018-06-20T17:16:10.788Z,101310.49
2018-06-20T17:18:45.584Z,101306.17
2018-06-20T17:21:20.285Z,101310.84
2018-06-20T17:23:54.627Z,101299.82
2018-06-20T17:26:24.308Z,101302.06
2018-06-20T17:28:53.689Z,101302.47
2018-06-20T17:31:23.084Z,101303.47
2018-06-20T17:33:52.789Z,101297.24
2018-06-20T17:36:22.273Z,101290.06
2018-06-20T17:38:51.833Z,101283.09
2018-06-20T17:41:21.370Z,101283.95
2018-06-20T17:43:51.056Z,101287.20
2018-06-20T17:46:20.299Z,101279.34
2018-06-20T17:48:49.677Z,101277.54
2018-06-20T17:51:19.439Z,101271.30
2018-06-20T17:53:48.877Z,101270.87
2018-06-20T17:56:18.022Z,101268.09
2018-06-20T17:58:47.534Z,101275.41
2018-06-20T18:01:17.191Z,101269.77
2018-06-20T18:03:46.616Z,101274.80
2018-06-20T18:06:21.309Z,101277.20
2018-06-20T18:08:56.093Z,101269.83
2018-06-20T18:11:30.936Z,101266.34
2018-06-20T18:14:05.543Z,101269.33
2018-06-20T18:16:40.767Z,101270.64
2018-06-20T18:19:10.270Z,101269.48
2018-06-20T18:21:40.326Z,101274.06
2018-06-20T18:24:10.036Z,101271.24
2018-06-20T18:26:39.610Z,101283.91
2018-06-20T18:29:09.069Z,101273.84
2018-06-20T18:31:38.677Z,101285.80
2018-06-20T18:34:08.668Z,101279.06
2018-06-20T18:36:38.241Z,101278.34
2018-06-20T18:39:09.706Z,101270.88
2018-06-20T18:41:39.290Z,101273.31
2018-06-20T18:44:09.645Z,101270.64
2018-06-20T18:46:39.901Z,101266.83
2018-06-20T18:49:10.462Z,101270.06
2018-06-20T18:51:39.917Z,101276.68
2018-06-20T18:54:09.454Z,101270.70
2018-06-20T18:56:39.587Z,101279.31
2018-06-20T18:59:14.789Z,101284.75
2018-06-20T19:01:49.782Z,101286.02
2018-06-20T19:04:24.443Z,101280.25
2018-06-20T19:06:59.570Z,101281.70
2018-06-20T19:09:29.122Z,101284.25
2018-06-20T19:11:58.751Z,101282.47
2018-06-20T19:14:28.528Z,101285.23
2018-06-20T19:16:58.419Z,101288.21
2018-06-20T19:19:28.106Z,101290.98
2018-06-20T19:21:58.415Z,101291.34
2018-06-20T19:24:27.881Z,101292.11
2018-06-20T19:26:57.370Z,101291.30
2018-06-20T19:29:26.914Z,101290.38
2018-06-20T19:31:56.925Z,101291.98
2018-06-20T19:34:26.433Z,101302.92
2018-06-20T19:36:55.909Z,101299.48
2018-06-20T19:39:30.731Z,101310.34
2018-06-20T19:42:00.220Z,101305.88
2018-06-20T19:44:34.822Z,101319.64
2018-06-20T19:47:05.839Z,101311.38
2018-06-20T19:49:36.146Z,101311.76
2018-06-20T19:52:06.412Z,101313.77
2018-06-20T19:54:36.014Z,101319.06
2018-06-20T19:57:05.572Z,101323.78
2018-06-20T19:59:35.147Z,101316.20
2018-06-20T20:02:04.651Z,101317.81
2018-06-20T20:04:34.319Z,101318.70
2018-06-20T20:07:03.786Z,101316.38
2018-06-20T20:09:33.091Z,101320.05
2018-06-20T20:12:02.784Z,101324.16
2018-06-20T20:14:32.612Z,101318.02
2018-06-20T20:17:02.271Z,101316.45
2018-06-20T20:19:32.041Z,101322.73
2018-06-20T20:22:01.333Z,101325.31
2018-06-20T20:24:30.643Z,101319.80
2018-06-20T20:26:59.874Z,101318.81
2018-06-20T20:29:29.849Z,101313.77
2018-06-20T20:31:59.407Z,101310.04
2018-06-20T20:34:29.130Z,101318.00
2018-06-20T20:36:58.600Z,101311.37
2018-06-20T20:39:28.133Z,101307.92
2018-06-20T20:41:58.441Z,101319.58
2018-06-20T20:44:27.970Z,101315.67
2018-06-20T20:46:57.484Z,101312.90
2018-06-20T20:49:27.104Z,101314.80
2018-06-20T20:51:57.465Z,101307.47
2018-06-20T20:54:27.479Z,101304.41
2018-06-20T20:56:57.030Z,101303.94
2018-06-20T20:59:28.399Z,101298.66
2018-06-20T21:01:57.901Z,101301.73
2018-06-20T21:04:28.053Z,101291.66
2018-06-20T21:06:57.624Z,101288.38
2018-06-20T21:09:27.512Z,101285.59
2018-06-20T21:11:57.714Z,101287.41
2018-06-20T21:14:28.520Z,101287.63
2018-06-20T21:16:58.715Z,101286.42
2018-06-20T21:19:29.291Z,101283.06
2018-06-20T21:21:58.901Z,101282.22
2018-06-20T21:24:28.922Z,101271.67
2018-06-20T21:26:58.836Z,101275.16
2018-06-20T21:29:28.999Z,101266.37
2018-06-20T21:31:58.534Z,101264.63
2018-06-20T21:34:29.050Z,101260.11
2018-06-20T21:36:59.962Z,101260.75
2018-06-20T21:39:29.596Z,101259.33
2018-06-20T21:41:59.170Z,101259.12
2018-06-20T21:44:29.057Z,101262.98
2018-06-20T21:46:58.766Z,101264.67
2018-06-20T21:49:29.246Z,101255.38
2018-06-20T21:51:58.786Z,101254.13
2018-06-20T21:54:28.850Z,101256.45
2018-06-20T21:56:58.499Z,101245.94
2018-06-20T21:59:29.258Z,101252.35
2018-06-20T22:01:58.671Z,101254.53
2018-06-20T22:04:28.137Z,101252.43
2018-06-20T22:06:57.651Z,101242.79
2018-06-20T22:09:27.582Z,101246.16
2018-06-20T22:11:57.578Z,101239.64
2018-06-20T22:14:27.223Z,101242.31
2018-06-20T22:16:57.317Z,101237.16
2018-06-20T22:19:27.458Z,101237.64
2018-06-20T22:21:57.584Z,101229.27
2018-06-20T22:24:27.276Z,101224.42
2018-06-20T22:26:57.085Z,101219.84
2018-06-20T22:29:26.686Z,101217.69
2018-06-20T22:31:57.146Z,101213.52
2018-06-20T22:34:26.546Z,101207.98
2018-06-20T22:36:56.029Z,101208.02
2018-06-20T22:39:25.759Z,101204.66
2018-06-20T22:41:55.273Z,101193.87
2018-06-20T22:44:24.982Z,101195.08
2018-06-20T22:46:55.014Z,101196.77
2018-06-20T22:49:24.638Z,101188.72
2018-06-20T22:51:54.117Z,101188.77
2018-06-20T22:54:23.667Z,101183.34
2018-06-20T22:56:53.341Z,101176.57
2018-06-20T22:59:22.914Z,101173.63
2018-06-20T23:01:52.454Z,101171.57
2018-06-20T23:04:21.918Z,101174.52
2018-06-20T23:06:51.879Z,101179.98
2018-06-20T23:09:21.953Z,101169.89
2018-06-20T23:11:51.458Z,101168.21
2018-06-20T23:14:20.981Z,101169.46
2018-06-20T23:16:50.412Z,101164.52
2018-06-20T23:19:19.988Z,101161.61
2018-06-20T23:21:49.628Z,101163.44
2018-06-20T23:24:19.044Z,101165.87
2018-06-20T23:26:48.494Z,101161.77
2018-06-20T23:29:18.130Z,101165.45
2018-06-20T23:31:47.641Z,101160.83
2018-06-20T23:34:17.323Z,101153.16
2018-06-20T23:36:46.840Z,101154.47
2018-06-20T23:39:16.784Z,101148.63
2018-06-20T23:41:46.997Z,101146.11
2018-06-20T23:44:16.618Z,101140.63
2018-06-20T23:46:46.104Z,101140.22
2018-06-20T23:49:15.675Z,101140.59
2018-06-20T23:51:46.062Z,101133.86
2018-06-20T23:54:15.544Z,101125.59
2018-06-20T23:56:44.976Z,101127.70
2018-06-20T23:59:14.451Z,101127.70
